Welcome to our new website - Welkom op onze vernieuwde website - Bienvenue sur notre nouveau site web - Willkommen auf unserer neuen Website

2018-September-20 Er zijn problemen met website hosting, daarom kan het zijn dat niet alle gegevens worden bijgewerkt. Of dat de website tijdelijk niet bereikbaar is.
Er wordt door het bedrijf aan gewerkt, wijzelf kunnen helaas niets doen en moeten net als u afwachtern.

Lokaal brand risico:
CBI


Regionaal brand risico: Meer informatie


Weerstation
Sluispark-LeuvenLeuven-Sluispark



info button From: 23-09-2018 11:59    Until: 22:59 warning for: Rain Level: Yellow   Rain
Een lagedrukzone en daaraan verbonden actieve storingen trekken vandaag over ons land. We verwachten nog flink wat neerslag, zodat we van gisteren tot vanavond in vele streken totale neerslaghoeveelheden van 20 tot 40 mm kunnen bereiken. Une zone de basse pression et la perturbation active associee a celle-ci traversera notre pays aujourd?hui.Nous prevoyons encore des precipitations assez intenses en de nombreuses regions. Les quantites pourront atteindre 20 a 40 mm entre hier et ce soir. 

Nearby Airports - METAR Reports

   
EBBR - Wilsele bij Leuven
Updated: 23-09-2018 13:20
Light Rain, Mostly Cloudy    Wind: North 25.9 km/h
Light Rain, Mostly Cloudy
Wind: Wind: North 25.9 km/h
Temperature: 11°C
Dew Point: 11°C
Humidity: 100%
Barometer: 1010 hPa
Clouds: Mostly Cloudy
Visibility: 6 km
Cloud details: Partly Cloudy 121.9 m,
Mostly Cloudy 182.9 m
EBBR 231120Z 36014KT 6000 -RA SCT004 BKN006 11/11 Q1010 TEMPO 2000 RA BKN004
EBAW - Antwerp
Updated: 23-09-2018 13:20
Light Rain, Mostly Cloudy    Wind: North 13 km/h
Light Rain, Mostly Cloudy
Wind: Wind: North 13 km/h
Temperature: 12°C
Dew Point: 11°C
Humidity: 94%
Barometer: 1010 hPa
Clouds: Mostly Cloudy
Visibility: 7 km
Cloud details: Partly Cloudy 121.9 m,
Mostly Cloudy 213.4 m
EBAW 231120Z 01007KT 340V050 7000 -RA SCT004 BKN007 12/11 Q1010 REDZ TEMPO 4500 RADZ BKN004
EBLG - Li├Ęge
Updated: 23-09-2018 13:20
Light Rain, Mostly Cloudy    Wind: NNE 13 km/h
Light Rain, Mostly Cloudy
Wind: Wind: NNE 13 km/h
Temperature: 12°C
Dew Point: 11°C
Humidity: 94%
Barometer: 1007 hPa
Clouds: Mostly Cloudy
Visibility: 7 km
Cloud details: Mostly Cloudy 91.4 m,
Mostly Cloudy 152.4 m
EBLG 231120Z 02007KT 7000 -RA BKN003 BKN005 12/11 Q1007 TEMPO 4000 RA
EBCV - Mons/Bergen
Updated: 20-09-2018 16:25
NOT Current
Few Clouds    Wind: South 25.9 km/h
Few Clouds
Wind: Wind: South 25.9 km/h
Temperature: 24°C
Dew Point: 13°C
Humidity: 50%
Barometer: 1014 hPa
Clouds: Few Clouds
Visibility: More than 10 km
Cloud details: Few Clouds 6400.8 m
EBCV 201425Z AUTO 19014KT 9999 FEW210/// 24/13 Q1014 BLU
EHBK - Maastricht
Updated: 23-09-2018 13:25
Light Drizzle, Mostly Cloudy    Wind: NE 18.5 km/h
Light Drizzle, Mostly Cloudy
Wind: Wind: NE 18.5 km/h
Temperature: 12°C
Dew Point: 12°C
Humidity: 100%
Barometer: 1007 hPa
Clouds: Mostly Cloudy
Visibility: 8 km
Cloud details: Partly Cloudy 61 m,
Mostly Cloudy 121.9 m,
Mostly Cloudy 182.9 m
EHBK 231125Z AUTO 04010KT 010V070 8000 -DZ SCT002 BKN004 BKN006 12/12 Q1007 RERA REDZ TEMPO 3000 RA BKN006
ELLX - Luxemburg
Updated: 23-09-2018 13:20
Light Rain, Mostly Cloudy    Wind: SW 35.2 km/h<br />Gust to 35.2 km/h
Light Rain, Mostly Cloudy
Wind: Wind: SW 35.2 km/h
Gust to 35.2 km/h
Temperature: 19°C
Dew Point: 18°C
Humidity: 94%
Barometer: 1009 hPa
Clouds: Mostly Cloudy
Visibility: 8 km
Cloud details: Partly Cloudy 213.4 m,
Mostly Cloudy 274.3 m
ELLX 231120Z 23019G33KT 8000 -RA SCT007 BKN009 19/18 Q1009 NOSIG
EBOS - Oostende
Updated: 23-09-2018 13:20
Light Showers, Rain, Mostly Cloudy    Wind: NE 20.4 km/h
Light Showers, Rain, Mostly Cloudy
Wind: Wind: NE 20.4 km/h
Temperature: 12°C
Dew Point: 10°C
Humidity: 88%
Barometer: 1012 hPa
Clouds: Mostly Cloudy
Visibility: More than 10 km
Cloud details: Few Clouds 243.8 m,
Partly Cloudy 396.2 m,
Mostly Cloudy 670.6 m
EBOS 231120Z 04011KT 9999 -SHRA FEW008 SCT013 BKN022 12/10 Q1012 TEMPO 34015KT 4000 SHRA
  

Script developed by  Saratoga-weather.org Adapted for the template by  Weerstation Leuven

You find our weather info also at:

UK Metoffice

WeatherCloud

European Weather Network

Weather Underground

Benelux Weather Network

AWEKAS

WeatherlinkIP

Het Weer Aktueel

Equipment we use:

Weather-station
Davis VP2 weatherstation

Weather-program
Meteobridge

Weather-server
D-Link DIR-505

Provider
Robohost

Davis VP2 weatherstation

Meteobridge

D-Link DIR-505

Robohost